createdAt,value
2023-05-25T00:01:36.358Z,99.61
2023-05-25T00:04:39.302Z,100.00
2023-05-25T00:07:41.917Z,100.00
2023-05-25T00:10:44.709Z,100.00
2023-05-25T00:13:47.359Z,100.00
2023-05-25T00:16:51.757Z,100.00
2023-05-25T00:19:58.468Z,100.00
2023-05-25T00:23:02.758Z,100.00
2023-05-25T00:26:05.287Z,100.00
2023-05-25T00:29:08.192Z,100.00
2023-05-25T00:32:10.985Z,100.00
2023-05-25T00:35:13.945Z,100.00
2023-05-25T00:38:19.586Z,100.00
2023-05-25T00:41:23.257Z,100.00
2023-05-25T00:44:25.881Z,100.00
2023-05-25T00:47:28.871Z,100.00
2023-05-25T00:50:42.037Z,100.00
2023-05-25T00:53:44.960Z,100.00
2023-05-25T00:56:56.970Z,100.00
2023-05-25T01:00:01.687Z,100.00
2023-05-25T01:03:13.957Z,100.00
2023-05-25T01:06:17.984Z,100.00
2023-05-25T01:09:21.393Z,100.00
2023-05-25T01:12:27.843Z,100.00
2023-05-25T01:15:33.782Z,100.00
2023-05-25T01:18:37.918Z,100.00
2023-05-25T01:21:46.175Z,100.00
2023-05-25T01:24:52.862Z,100.00
2023-05-25T01:28:09.851Z,100.00
2023-05-25T01:31:14.694Z,100.00
2023-05-25T01:34:18.821Z,100.00
2023-05-25T01:37:23.608Z,100.00
2023-05-25T01:40:26.220Z,100.00
2023-05-25T01:43:31.615Z,100.00
2023-05-25T01:46:41.349Z,100.00
2023-05-25T01:50:00.213Z,100.00
2023-05-25T01:53:13.971Z,100.00
2023-05-25T01:56:17.041Z,100.00
2023-05-25T01:59:26.147Z,100.00
2023-05-25T02:02:29.657Z,100.00
2023-05-25T02:05:32.240Z,100.00
2023-05-25T02:08:35.083Z,100.00
2023-05-25T02:11:37.811Z,100.00
2023-05-25T02:14:41.029Z,100.00
2023-05-25T02:17:44.772Z,100.00
2023-05-25T02:20:47.887Z,100.00
2023-05-25T02:23:50.446Z,100.00
2023-05-25T02:26:53.644Z,100.00
2023-05-25T02:29:56.489Z,100.00
2023-05-25T02:33:02.712Z,100.00
2023-05-25T02:36:05.680Z,100.00
2023-05-25T02:39:09.417Z,100.00
2023-05-25T02:42:12.172Z,100.00
2023-05-25T02:45:17.492Z,100.00
2023-05-25T02:48:21.821Z,100.00
2023-05-25T02:51:24.582Z,100.00
2023-05-25T02:54:27.119Z,100.00
2023-05-25T02:57:30.776Z,100.00
2023-05-25T03:00:34.595Z,100.00
2023-05-25T03:03:37.616Z,100.00
2023-05-25T03:06:40.181Z,100.00
2023-05-25T03:09:47.172Z,100.00
2023-05-25T03:12:49.971Z,100.00
2023-05-25T03:15:53.480Z,100.00
2023-05-25T03:18:56.070Z,100.00
2023-05-25T03:22:00.576Z,100.00
2023-05-25T03:25:04.173Z,100.00
2023-05-25T03:28:06.856Z,100.00
2023-05-25T03:31:09.358Z,100.00
2023-05-25T03:34:12.849Z,100.00
2023-05-25T03:37:15.598Z,100.00
2023-05-25T03:40:18.565Z,100.00
2023-05-25T03:43:20.954Z,100.00
2023-05-25T03:46:25.422Z,100.00
2023-05-25T03:49:28.296Z,100.00
2023-05-25T03:52:33.514Z,100.00
2023-05-25T03:55:35.954Z,100.00
2023-05-25T03:58:38.747Z,100.00
2023-05-25T04:01:41.187Z,100.00
2023-05-25T04:04:44.429Z,100.00
2023-05-25T04:07:47.101Z,100.00
2023-05-25T04:10:49.888Z,100.00
2023-05-25T04:13:52.358Z,100.00
2023-05-25T04:16:55.727Z,100.00
2023-05-25T04:19:58.381Z,100.00
2023-05-25T04:23:01.529Z,100.00
2023-05-25T04:26:04.070Z,100.00
2023-05-25T04:29:07.315Z,100.00
2023-05-25T04:32:37.773Z,100.00
2023-05-25T04:36:14.483Z,100.00
2023-05-25T04:39:17.094Z,100.00
2023-05-25T04:42:27.139Z,100.00
2023-05-25T04:45:33.556Z,100.00
2023-05-25T04:48:39.295Z,100.00
2023-05-25T04:51:41.799Z,100.00
2023-05-25T04:54:47.073Z,100.00
2023-05-25T04:57:53.528Z,100.00
2023-05-25T05:00:56.786Z,100.00
2023-05-25T05:03:59.228Z,100.00
2023-05-25T05:07:02.525Z,100.00
2023-05-25T05:10:06.851Z,100.00
2023-05-25T05:13:11.905Z,100.00
2023-05-25T05:16:14.343Z,100.00
2023-05-25T05:19:17.318Z,100.00
2023-05-25T05:22:20.132Z,100.00
2023-05-25T05:25:22.951Z,100.00
2023-05-25T05:28:27.678Z,100.00
2023-05-25T05:31:31.897Z,100.00
2023-05-25T05:34:34.979Z,100.00
2023-05-25T05:37:44.668Z,100.00
2023-05-25T05:40:47.152Z,100.00
2023-05-25T05:43:55.549Z,100.00
2023-05-25T05:47:01.328Z,100.00
2023-05-25T05:50:06.769Z,100.00
2023-05-25T05:53:11.305Z,100.00
2023-05-25T05:56:19.507Z,100.00
2023-05-25T05:59:23.351Z,100.00
2023-05-25T06:02:27.660Z,100.00
2023-05-25T06:05:30.332Z,100.00
2023-05-25T06:08:35.330Z,100.00
2023-05-25T06:11:40.287Z,100.00
2023-05-25T06:14:44.503Z,100.00
2023-05-25T06:17:48.445Z,100.00
2023-05-25T06:20:52.449Z,100.00
2023-05-25T06:23:55.504Z,100.00
2023-05-25T06:26:58.306Z,100.00
2023-05-25T06:30:01.457Z,100.00
2023-05-25T06:33:04.865Z,100.00
2023-05-25T06:36:08.890Z,100.00
2023-05-25T06:39:11.761Z,100.00
2023-05-25T06:42:15.024Z,100.00
2023-05-25T06:45:27.601Z,100.00
2023-05-25T06:48:30.111Z,100.00
2023-05-25T06:51:34.461Z,100.00
2023-05-25T06:54:38.099Z,100.00
2023-05-25T06:57:41.301Z,100.00
2023-05-25T07:00:44.823Z,100.00
2023-05-25T07:03:49.427Z,100.00
2023-05-25T07:06:52.875Z,100.00
2023-05-25T07:09:55.724Z,100.00
2023-05-25T07:12:58.203Z,100.00
2023-05-25T07:16:01.051Z,100.00
2023-05-25T07:19:03.648Z,100.00
2023-05-25T07:22:06.516Z,100.00
2023-05-25T07:25:10.617Z,100.00
2023-05-25T07:28:13.413Z,100.00
2023-05-25T07:31:16.587Z,100.00
2023-05-25T07:34:20.627Z,100.00
2023-05-25T07:37:23.103Z,100.00
2023-05-25T07:40:26.474Z,100.00
2023-05-25T07:43:29.234Z,100.00
2023-05-25T07:46:33.841Z,100.00
2023-05-25T07:49:36.350Z,100.00
2023-05-25T07:52:39.308Z,100.00
2023-05-25T07:55:41.856Z,100.00
2023-05-25T07:58:44.861Z,100.00
2023-05-25T08:01:47.392Z,100.00
2023-05-25T08:04:50.694Z,100.00
2023-05-25T08:07:53.330Z,100.00
2023-05-25T08:10:56.096Z,100.00
2023-05-25T08:14:00.456Z,100.00
2023-05-25T08:17:04.958Z,100.00
2023-05-25T08:20:10.552Z,100.00
2023-05-25T08:23:13.544Z,100.00
2023-05-25T08:26:34.192Z,100.00
2023-05-25T08:29:38.932Z,100.00
2023-05-25T08:32:41.385Z,100.00
2023-05-25T08:35:44.276Z,96.39
2023-05-25T08:38:46.883Z,92.11
2023-05-25T08:41:50.826Z,92.39
2023-05-25T08:44:53.380Z,92.10
2023-05-25T08:47:59.607Z,92.52
2023-05-25T08:51:06.509Z,88.95
2023-05-25T08:54:13.894Z,89.40
2023-05-25T08:57:31.963Z,86.66
2023-05-25T09:00:43.085Z,88.53
2023-05-25T09:03:46.589Z,84.69
2023-05-25T09:07:05.920Z,85.09
2023-05-25T09:10:12.993Z,84.56
2023-05-25T09:16:23.248Z,78.21
2023-05-25T09:19:26.133Z,79.30
2023-05-25T09:22:28.733Z,80.49
2023-05-25T09:25:32.219Z,84.49
2023-05-25T09:28:35.359Z,82.56
2023-05-25T09:31:39.145Z,82.37
2023-05-25T09:34:44.191Z,83.60
2023-05-25T09:37:49.630Z,83.93
2023-05-25T09:40:52.527Z,83.72
2023-05-25T09:44:09.694Z,78.27
2023-05-25T09:47:14.282Z,79.73
2023-05-25T09:50:18.286Z,80.36
2023-05-25T09:53:20.933Z,76.33
2023-05-25T09:56:24.924Z,77.55
2023-05-25T09:59:27.520Z,80.99
2023-05-25T10:02:30.464Z,80.28
2023-05-25T10:05:32.946Z,77.29
2023-05-25T10:08:35.896Z,75.94
2023-05-25T10:11:40.142Z,76.28
2023-05-25T10:14:43.514Z,72.20
2023-05-25T10:17:56.057Z,72.96
2023-05-25T10:21:05.034Z,72.86
2023-05-25T10:24:15.558Z,71.76
2023-05-25T10:27:26.838Z,71.64
2023-05-25T10:30:30.819Z,72.83
2023-05-25T10:33:34.494Z,72.74
2023-05-25T10:36:38.437Z,73.03
2023-05-25T10:39:44.053Z,74.19
2023-05-25T10:42:46.831Z,75.24
2023-05-25T10:45:50.028Z,76.63
2023-05-25T10:48:53.123Z,76.92
2023-05-25T10:52:00.370Z,75.68
2023-05-25T10:55:05.230Z,76.92
2023-05-25T10:58:13.507Z,75.55
2023-05-25T11:01:16.592Z,77.43
2023-05-25T11:04:19.680Z,79.76
2023-05-25T11:07:24.669Z,76.41
2023-05-25T11:10:49.486Z,77.52
2023-05-25T11:13:52.297Z,79.45
2023-05-25T11:17:08.421Z,81.78
2023-05-25T11:20:27.954Z,79.19
2023-05-25T11:23:31.004Z,81.90
2023-05-25T11:26:34.411Z,74.80
2023-05-25T11:29:37.982Z,74.64
2023-05-25T11:32:50.938Z,76.92
2023-05-25T11:35:55.465Z,74.33
2023-05-25T11:42:07.183Z,70.91
2023-05-25T11:45:15.056Z,71.82
2023-05-25T11:48:18.615Z,71.41
2023-05-25T11:51:26.519Z,69.81
2023-05-25T11:54:30.328Z,69.48
2023-05-25T11:57:33.819Z,66.00
2023-05-25T12:00:36.626Z,71.02
2023-05-25T12:03:39.393Z,65.39
2023-05-25T12:06:42.502Z,66.66
2023-05-25T12:09:45.052Z,64.86
2023-05-25T12:12:49.974Z,65.75
2023-05-25T12:15:55.512Z,63.60
2023-05-25T12:18:58.508Z,62.29
2023-05-25T12:22:01.261Z,63.22
2023-05-25T12:25:06.794Z,62.44
2023-05-25T12:28:16.187Z,62.94
2023-05-25T12:31:27.192Z,64.32
2023-05-25T12:34:30.056Z,61.46
2023-05-25T12:37:34.117Z,61.52
2023-05-25T12:40:36.628Z,59.42
2023-05-25T12:43:50.353Z,59.11
2023-05-25T12:46:54.696Z,61.44
2023-05-25T12:50:16.698Z,59.77
2023-05-25T12:53:19.143Z,57.90
2023-05-25T12:56:22.835Z,59.61
2023-05-25T12:59:25.525Z,58.24
2023-05-25T13:02:28.882Z,56.64
2023-05-25T13:05:34.327Z,58.64
2023-05-25T13:08:40.700Z,56.53
2023-05-25T13:11:43.419Z,59.19
2023-05-25T13:14:47.410Z,58.33
2023-05-25T13:17:51.150Z,59.49
2023-05-25T13:20:56.435Z,58.90
2023-05-25T13:23:59.753Z,57.73
2023-05-25T13:27:02.536Z,58.02
2023-05-25T13:30:12.032Z,54.78
2023-05-25T13:33:32.789Z,56.20
2023-05-25T13:36:36.213Z,53.97
2023-05-25T13:39:38.765Z,57.11
2023-05-25T13:42:43.057Z,55.48
2023-05-25T13:45:45.914Z,57.19
2023-05-25T13:48:55.126Z,54.56
2023-05-25T13:51:57.964Z,55.84
2023-05-25T13:55:01.355Z,55.68
2023-05-25T13:58:04.105Z,56.01
2023-05-25T14:01:09.369Z,56.55
2023-05-25T14:08:09.263Z,55.90
2023-05-25T14:11:12.376Z,53.24
2023-05-25T14:14:30.197Z,54.73
2023-05-25T14:18:01.192Z,52.43
2023-05-25T14:21:06.926Z,51.22
2023-05-25T14:24:11.946Z,51.00
2023-05-25T14:28:00.846Z,51.95
2023-05-25T14:31:04.480Z,52.06
2023-05-25T14:34:16.528Z,53.22
2023-05-25T14:41:40.848Z,51.67
2023-05-25T14:44:43.829Z,52.69
2023-05-25T14:47:47.688Z,53.88
2023-05-25T14:50:50.374Z,53.56
2023-05-25T14:53:54.755Z,54.21
2023-05-25T14:56:57.441Z,54.46
2023-05-25T15:00:00.401Z,53.57
2023-05-25T15:03:03.047Z,52.33
2023-05-25T15:06:35.750Z,52.92
2023-05-25T15:10:47.711Z,52.15
2023-05-25T15:18:57.188Z,55.44
2023-05-25T15:22:00.371Z,52.89
2023-05-25T15:25:03.163Z,53.55
2023-05-25T15:28:07.145Z,53.08
2023-05-25T15:31:10.193Z,53.86
2023-05-25T15:34:13.154Z,52.47
2023-05-25T15:37:18.438Z,52.31
2023-05-25T15:40:21.337Z,52.28
2023-05-25T15:43:23.713Z,52.75
2023-05-25T15:46:32.460Z,53.21
2023-05-25T15:49:37.648Z,54.00
2023-05-25T15:52:42.260Z,53.97
2023-05-25T15:55:54.383Z,53.72
2023-05-25T15:59:04.268Z,54.00
2023-05-25T16:02:10.720Z,53.20
2023-05-25T16:05:13.983Z,53.31
2023-05-25T16:08:16.568Z,54.67
2023-05-25T16:11:19.939Z,54.23
2023-05-25T16:14:22.644Z,54.67
2023-05-25T16:17:25.626Z,53.80
2023-05-25T16:20:29.203Z,54.20
2023-05-25T16:23:32.592Z,53.59
2023-05-25T16:26:41.138Z,53.95
2023-05-25T16:29:44.044Z,54.84
2023-05-25T16:32:46.618Z,55.12
2023-05-25T16:35:49.653Z,55.41
2023-05-25T16:38:52.246Z,56.16
2023-05-25T16:41:57.926Z,55.92
2023-05-25T16:45:02.816Z,56.29
2023-05-25T16:48:06.758Z,56.27
2023-05-25T16:51:15.285Z,56.72
2023-05-25T16:54:18.250Z,56.16
2023-05-25T16:57:20.622Z,56.64
2023-05-25T17:00:23.567Z,56.73
2023-05-25T17:03:26.389Z,56.61
2023-05-25T17:06:29.605Z,56.38
2023-05-25T17:09:33.225Z,57.15
2023-05-25T17:12:36.666Z,57.81
2023-05-25T17:15:39.240Z,57.89
2023-05-25T17:18:42.078Z,58.21
2023-05-25T17:21:44.693Z,57.80
2023-05-25T17:24:47.711Z,58.91
2023-05-25T17:27:50.336Z,58.96
2023-05-25T17:30:53.245Z,58.58
2023-05-25T17:33:56.568Z,59.30
2023-05-25T17:36:59.812Z,59.72
2023-05-25T17:40:06.180Z,59.95
2023-05-25T17:43:08.948Z,60.38
2023-05-25T17:46:11.847Z,60.73
2023-05-25T17:49:15.068Z,61.13
2023-05-25T17:52:17.869Z,61.42
2023-05-25T17:55:21.034Z,61.57
2023-05-25T17:58:24.005Z,61.65
2023-05-25T18:01:27.281Z,62.06
2023-05-25T18:04:30.023Z,62.61
2023-05-25T18:07:32.825Z,61.92
2023-05-25T18:10:35.797Z,62.15
2023-05-25T18:13:38.764Z,62.98
2023-05-25T18:16:42.715Z,63.29
2023-05-25T18:19:45.627Z,63.39
2023-05-25T18:22:48.444Z,63.65
2023-05-25T18:25:52.963Z,65.02
2023-05-25T18:28:55.777Z,64.40
2023-05-25T18:31:58.750Z,64.59
2023-05-25T18:35:01.247Z,65.19
2023-05-25T18:38:09.849Z,66.01
2023-05-25T18:41:13.651Z,66.87
2023-05-25T18:44:17.881Z,67.35
2023-05-25T18:47:27.618Z,67.57
2023-05-25T18:50:30.636Z,68.20
2023-05-25T18:53:35.249Z,69.01
2023-05-25T18:56:41.746Z,70.08
2023-05-25T18:59:47.592Z,70.46
2023-05-25T19:02:50.798Z,71.86
2023-05-25T19:05:53.599Z,71.96
2023-05-25T19:08:56.748Z,73.84
2023-05-25T19:11:59.399Z,72.52
2023-05-25T19:15:03.220Z,71.70
2023-05-25T19:18:06.077Z,72.36
2023-05-25T19:21:09.127Z,72.21
2023-05-25T19:24:11.976Z,71.50
2023-05-25T19:27:15.365Z,70.10
2023-05-25T19:30:18.175Z,70.38
2023-05-25T19:33:21.021Z,70.64
2023-05-25T19:36:23.664Z,72.12
2023-05-25T19:39:26.427Z,72.88
2023-05-25T19:42:29.171Z,73.79
2023-05-25T19:45:32.162Z,74.66
2023-05-25T19:48:34.765Z,74.81
2023-05-25T19:51:38.334Z,74.07
2023-05-25T19:54:41.111Z,74.71
2023-05-25T19:57:44.077Z,74.22
2023-05-25T20:00:46.870Z,74.76
2023-05-25T20:03:50.360Z,75.10
2023-05-25T20:06:52.842Z,76.01
2023-05-25T20:09:55.662Z,76.16
2023-05-25T20:12:58.192Z,76.19
2023-05-25T20:16:01.317Z,79.13
2023-05-25T20:19:07.777Z,79.15
2023-05-25T20:22:12.136Z,80.47
2023-05-25T20:25:14.669Z,81.76
2023-05-25T20:28:17.557Z,81.87
2023-05-25T20:31:20.069Z,86.25
2023-05-25T20:34:26.330Z,88.32
2023-05-25T20:37:29.137Z,93.91
2023-05-25T20:40:32.255Z,97.87
2023-05-25T20:43:35.046Z,100.00
2023-05-25T20:46:37.858Z,100.00
2023-05-25T20:49:40.425Z,100.00
2023-05-25T20:52:43.427Z,100.00
2023-05-25T20:55:47.617Z,100.00
2023-05-25T20:58:50.671Z,100.00
2023-05-25T21:01:55.923Z,100.00
2023-05-25T21:04:58.870Z,100.00
2023-05-25T21:08:01.763Z,100.00
2023-05-25T21:11:04.662Z,100.00
2023-05-25T21:14:08.309Z,100.00
2023-05-25T21:17:11.372Z,100.00
2023-05-25T21:20:13.894Z,100.00
2023-05-25T21:23:17.203Z,100.00
2023-05-25T21:26:19.857Z,100.00
2023-05-25T21:29:22.710Z,100.00
2023-05-25T21:32:25.618Z,100.00
2023-05-25T21:35:29.820Z,100.00
2023-05-25T21:38:33.737Z,100.00
2023-05-25T21:41:36.550Z,100.00
2023-05-25T21:44:39.068Z,100.00
2023-05-25T21:47:41.917Z,100.00
2023-05-25T21:50:44.672Z,100.00
2023-05-25T21:53:48.173Z,100.00
2023-05-25T21:56:50.739Z,100.00
2023-05-25T21:59:53.530Z,100.00
2023-05-25T22:02:56.164Z,100.00
2023-05-25T22:05:59.212Z,100.00
2023-05-25T22:09:01.711Z,100.00
2023-05-25T22:12:04.926Z,100.00
2023-05-25T22:15:08.051Z,100.00
2023-05-25T22:18:11.030Z,100.00
2023-05-25T22:21:15.173Z,100.00
2023-05-25T22:24:17.941Z,100.00
2023-05-25T22:27:21.224Z,100.00
2023-05-25T22:30:24.183Z,100.00
2023-05-25T22:33:26.768Z,100.00
2023-05-25T22:36:29.573Z,100.00
2023-05-25T22:39:32.032Z,100.00
2023-05-25T22:42:35.025Z,100.00
2023-05-25T22:45:37.466Z,100.00
2023-05-25T22:48:40.850Z,100.00
2023-05-25T22:51:43.350Z,100.00
2023-05-25T22:54:46.220Z,100.00
2023-05-25T22:57:49.869Z,100.00
2023-05-25T23:00:53.719Z,100.00
2023-05-25T23:03:56.188Z,100.00
2023-05-25T23:06:59.066Z,100.00
2023-05-25T23:10:01.563Z,100.00
2023-05-25T23:13:04.436Z,100.00
2023-05-25T23:16:08.584Z,100.00
2023-05-25T23:19:11.327Z,100.00
2023-05-25T23:22:13.725Z,100.00
2023-05-25T23:25:16.494Z,100.00
2023-05-25T23:28:19.433Z,100.00
2023-05-25T23:31:22.277Z,100.00
2023-05-25T23:34:24.577Z,100.00
2023-05-25T23:37:28.556Z,100.00
2023-05-25T23:40:31.020Z,100.00
2023-05-25T23:43:33.896Z,100.00
2023-05-25T23:46:36.562Z,100.00
2023-05-25T23:49:39.377Z,100.00
2023-05-25T23:52:42.034Z,100.00
2023-05-25T23:55:45.152Z,100.00
2023-05-25T23:58:47.733Z,100.00
